»·PEaware :: WAT540 KSBA-KBUR

WAT540 :: KSBA-KBUR

FLIGHT INFORMATION

Flight Status: Arrived
Operator:
Walker Air Transport
More flights by this operator :: More flights under this callsign
Pilot: Michael R. (33632)
Aircraft: GRUMMAN AERO AA5 CHEETAH TIGER
(AA5)
More flights by this aircraft type
Origin: KSBA Santa Barbara Mun
United States
Destination: KBUR Bob Hope-Burbank
United States
More flights between these airports :: More routes between these airports
Route: FIM
File this flight plan on PilotEdge
Remarks:
Altitude:
(Current/Filed)
5,500ft
Speed:
(Current/Filed)
130kts
Departed: 09-Feb-21 10:00 AM
Arrived: 09-Feb-21 10:44 AM
Distance/Time
Traveled:
75nm/0:44
Distance/Time
To Go:
Arrived

Flight Plot

Page will automatically refresh every two minutes.


Map Options




Map Legend


Flown Route
Filed Route
Departure Airport
Arrival Airport
Navaid (VOR, NDB)
Fix

Horizontal Profiles

Position Reports

Time Latitude Longitude Heading Altitude Ground
Speed
09-Feb-21 09:29 34.422662 -119.835592 340 9ft 0kts
09-Feb-21 09:30 34.422662 -119.835592 340 9ft 0kts
09-Feb-21 09:31 34.422662 -119.835592 340 9ft 0kts
09-Feb-21 09:32 34.422662 -119.835592 340 9ft 0kts
09-Feb-21 09:33 34.422662 -119.835592 340 9ft 0kts
09-Feb-21 09:34 34.422662 -119.835592 340 9ft 0kts
09-Feb-21 09:35 34.422662 -119.835592 340 9ft 0kts
09-Feb-21 09:36 34.422662 -119.835592 340 9ft 0kts
09-Feb-21 09:36 34.422662 -119.835592 340 9ft 0kts
09-Feb-21 09:38 34.422662 -119.835592 340 9ft 0kts
09-Feb-21 09:39 34.422662 -119.835592 340 9ft 0kts
09-Feb-21 09:39 34.422662 -119.835592 340 9ft 0kts
09-Feb-21 09:41 34.422662 -119.835592 340 9ft 0kts
09-Feb-21 09:41 34.422662 -119.835592 340 9ft 0kts
09-Feb-21 09:42 34.422662 -119.835592 340 9ft 0kts
09-Feb-21 09:44 34.422662 -119.835592 340 9ft 0kts
09-Feb-21 09:44 34.422662 -119.835592 340 9ft 0kts
09-Feb-21 09:45 34.422662 -119.835592 340 9ft 0kts
09-Feb-21 09:46 34.422662 -119.835592 340 9ft 0kts
09-Feb-21 09:47 34.422662 -119.835592 340 9ft 0kts
09-Feb-21 09:48 34.422662 -119.835592 340 9ft 0kts
09-Feb-21 09:49 34.422662 -119.835592 340 9ft 0kts
09-Feb-21 09:50 34.422662 -119.835592 340 9ft 0kts
09-Feb-21 09:51 34.422662 -119.835592 340 9ft 0kts
09-Feb-21 09:52 34.422666 -119.835594 340 9ft 0kts
09-Feb-21 09:53 34.422749 -119.835632 335 9ft 0kts
09-Feb-21 09:54 34.422755 -119.835635 333 8ft 0kts
09-Feb-21 09:55 34.422755 -119.835635 333 9ft 0kts
09-Feb-21 09:56 34.422765 -119.837136 299 11ft 2kts
09-Feb-21 09:57 34.426695 -119.837801 82 9ft 7kts
09-Feb-21 09:58 34.427070 -119.834616 358 9ft 0kts
09-Feb-21 09:59 34.427857 -119.837159 269 10ft 56kts
09-Feb-21 10:00 34.426385 -119.864983 262 863ft 85kts
09-Feb-21 10:01 34.422382 -119.900066 261 1514ft 120kts
09-Feb-21 10:02 34.416611 -119.948899 261 1483ft 140kts
09-Feb-21 10:03 34.415015 -119.995705 312 1558ft 129kts
09-Feb-21 10:04 34.432373 -119.974452 99 2215ft 116kts
09-Feb-21 10:05 34.414733 -119.944971 146 2973ft 108kts
09-Feb-21 10:06 34.400670 -119.911210 111 3678ft 111kts
09-Feb-21 10:07 34.391271 -119.874380 99 4420ft 111kts
09-Feb-21 10:08 34.386844 -119.837260 98 5090ft 113kts
09-Feb-21 10:09 34.388346 -119.796007 88 5419ft 128kts
09-Feb-21 10:10 34.388606 -119.751504 90 5486ft 135kts
09-Feb-21 10:11 34.387854 -119.705646 91 5485ft 136kts
09-Feb-21 10:12 34.386644 -119.659747 91 5485ft 136kts
09-Feb-21 10:13 34.385226 -119.613792 92 5485ft 136kts
09-Feb-21 10:14 34.383712 -119.567808 92 5485ft 136kts
09-Feb-21 10:15 34.382150 -119.521952 92 5485ft 136kts
09-Feb-21 10:16 34.380551 -119.475928 92 5485ft 136kts
09-Feb-21 10:17 34.378934 -119.430025 92 5485ft 136kts
09-Feb-21 10:18 34.377201 -119.384046 92 5485ft 136kts
09-Feb-21 10:19 34.375382 -119.338164 93 5485ft 136kts
09-Feb-21 10:20 34.373575 -119.292244 92 5485ft 136kts
09-Feb-21 10:21 34.371769 -119.246263 92 5485ft 136kts
09-Feb-21 10:22 34.369933 -119.200278 93 5485ft 136kts
09-Feb-21 10:23 34.365428 -119.154684 99 5485ft 136kts
09-Feb-21 10:24 34.358950 -119.109240 99 5485ft 136kts
09-Feb-21 10:25 34.352588 -119.063897 99 5484ft 136kts
09-Feb-21 10:26 34.346340 -119.018672 99 5484ft 136kts
09-Feb-21 10:27 34.340173 -118.973298 99 5484ft 136kts
09-Feb-21 10:28 34.334088 -118.927794 99 5484ft 136kts
09-Feb-21 10:29 34.328123 -118.882431 98 5484ft 136kts
09-Feb-21 10:30 34.321237 -118.837210 101 5484ft 136kts
09-Feb-21 10:31 34.313497 -118.792195 101 5484ft 136kts
09-Feb-21 10:32 34.304574 -118.746956 105 5335ft 144kts
09-Feb-21 10:33 34.293473 -118.701989 108 4894ft 137kts
09-Feb-21 10:34 34.281614 -118.658425 108 4430ft 135kts
09-Feb-21 10:35 34.270023 -118.615466 107 3961ft 130kts
09-Feb-21 10:36 34.259105 -118.574587 107 3513ft 124kts
09-Feb-21 10:37 34.248473 -118.534637 107 3499ft 127kts
09-Feb-21 10:38 34.237824 -118.494281 107 3497ft 121kts
09-Feb-21 10:39 34.220188 -118.460675 130 3208ft 115kts
09-Feb-21 10:40 34.203863 -118.434235 117 2433ft 90kts
09-Feb-21 10:41 34.198512 -118.405473 94 1782ft 82kts
09-Feb-21 10:42 34.198032 -118.377051 90 983ft 82kts
09-Feb-21 10:43 34.198351 -118.360280 14 715ft 4kts
09-Feb-21 10:44 34.198897 -118.359485 87 715ft 14kts
09-Feb-21 10:45 34.198886 -118.357489 47 711ft 0kts

Navigation Log

Ident Type
Flight plan parsing failed, navigation log unavailable